Latest Coastal Weather Observations for Port Kembla Harbour

IDN60701

Issued at 1:35 pm EST Thursday 31 July 2014 (issued every 10 minutes, with the page automatically refreshed every 10 minutes)

About coastal observations | Map of coastal stations | Coastal observations for NSW | Marine services | Other Formats
Station Details ID: 068253 Name: PORT KEMBLA NTC AWS Lat: -34.47 Lon: 150.91 Height: 0.0 m
Data from the previous 72 hours. | See also: Recent months for locations in New South Wales
Date/Time
EST
Temp

°C
Wind Pressure Rain
since 9am
mm
Weather Cloud Vis
km
Sea
Height
m
Swell
Dir
 
Speed
knots
Gust
knots
hPa Trend Height
m
Period
s
Dir
31/01:30pm 23.4 NNW 11 22 1005.9 - - - - - - - - -
31/01:00pm 23.3 NNW 15 24 1006.6 - - - - - - - - -
31/12:44pm 23.1 NW 17 27 1007.1 - - - - - - - - -
31/12:30pm 22.4 NW 15 21 1007.5 - - - - - - - - -
31/12:00pm 21.8 NW 14 20 1008.4 - - - - - - - - -
31/11:30am 20.4 N 9 13 1009.5 - - - - - - - - -
31/11:00am 19.5 NNE 10 13 1010.4 - - - - - - - - -
31/10:30am 19.0 N 11 16 1011.1 - - - - - - - - -
31/10:00am 18.6 N 9 14 1011.5 - - - - - - - - -
31/09:30am 18.0 N 10 13 1011.8 - - - - - - - - -
31/09:00am 17.5 NNE 7 10 1012.2 - - - - - - - - -
31/08:30am 16.9 N 10 14 1012.5 - - - - - - - - -
31/08:00am 16.8 NNE 11 16 1012.4 - - - - - - - - -
31/07:30am 16.1 NNE 11 17 1012.5 - - - - - - - - -
31/07:00am 16.5 NNE 10 14 1012.5 - - - - - - - - -
31/06:30am 16.8 NNW 6 11 1012.5 - - - - - - - - -
31/06:00am 17.1 NNE 6 10 1012.3 - - - - - - - - -
31/05:30am 16.9 NNE 7 12 1012.4 - - - - - - - - -
31/05:00am 16.5 N 7 12 1012.5 - - - - - - - - -
31/04:30am 16.1 NNE 8 12 1012.6 - - - - - - - - -
31/04:00am 16.1 NE 8 13 1012.6 - - - - - - - - -
31/03:30am 15.8 NNE 9 13 1012.7 - - - - - - - - -
31/03:00am 15.7 N 9 12 1013.0 - - - - - - - - -
31/02:30am 15.5 N 6 9 1013.4 - - - - - - - - -
31/02:00am 15.7 NNW 6 9 1013.8 - - - - - - - - -
31/01:30am 15.8 NNW 7 10 1014.0 - - - - - - - - -
31/01:00am 16.2 N 8 11 1014.2 - - - - - - - - -
31/12:30am 16.3 NNW 8 11 1014.5 - - - - - - - - -
31/12:00am 16.3 NNW 7 8 1014.9 - - - - - - - - -
 
Date/Time
EST
Temp

°C
Wind Pressure Rain
since 9am
mm
Weather Cloud Vis
km
Sea
Height
m
Swell
Dir
 
Speed
knots
Gust
knots
hPa Trend Height
m
Period
s
Dir
30/11:30pm 16.5 NNW 7 8 1015.1 - - - - - - - - -
30/11:00pm 17.1 N 7 11 1015.4 - - - - - - - - -
30/10:30pm 16.8 N 6 8 1015.6 - - - - - - - - -
30/10:00pm 16.9 N 6 9 1015.8 - - - - - - - - -
30/09:30pm 17.6 NNW 5 7 1015.9 - - - - - - - - -
30/09:00pm 17.8 N 4 8 1016.0 - - - - - - - - -
30/08:30pm 17.9 NNW 5 8 1016.0 - - - - - - - - -
30/08:00pm 18.0 NNW 5 9 1016.0 - - - - - - - - -
30/07:30pm 18.8 NW 7 10 1016.2 - - - - - - - - -
30/07:00pm 18.5 NNW 3 7 1015.8 - - - - - - - - -
30/06:30pm 19.2 W 6 8 1015.8 - - - - - - - - -
30/06:00pm 19.6 W 8 13 1015.7 - - - - - - - - -
30/05:30pm 19.9 WNW 12 25 1015.2 - - - - - - - - -
30/05:00pm 20.0 W 16 26 1014.8 - - - - - - - - -
30/04:30pm 20.3 WNW 15 23 1014.4 - - - - - - - - -
30/04:20pm 20.4 W 16 27 1014.3 - - - - - - - - -
30/04:00pm 20.6 W 15 23 1014.0 - - - - - - - - -
30/03:30pm 20.9 W 12 17 1013.9 - - - - - - - - -
30/03:00pm 20.9 W 18 27 1013.8 - - - - - - - - -
30/02:31pm 20.9 W 15 26 1014.0 - - - - - - - - -
30/02:30pm 20.9 W 15 23 1014.0 - - - - - - - - -
30/02:00pm 21.0 W 19 27 1014.0 - - - - - - - - -
30/01:37pm 21.0 WNW 15 25 1014.1 - - - - - - - - -
30/01:30pm 21.0 WNW 16 24 1014.0 - - - - - - - - -
30/01:05pm 21.0 WNW 15 25 1014.1 - - - - - - - - -
30/01:00pm 20.8 WNW 13 21 1014.2 - - - - - - - - -
30/12:30pm 20.6 W 12 20 1014.6 - - - - - - - - -
30/12:00pm 20.5 WNW 15 25 1015.0 - - - - - - - - -
30/11:30am 20.1 W 15 25 1015.7 - - - - - - - - -
30/11:00am 19.9 W 14 22 1016.1 - - - - - - - - -
30/10:30am 19.5 W 12 20 1016.4 - - - - - - - - -
30/10:00am 19.2 W 13 18 1016.5 - - - - - - - - -
30/09:30am 18.5 W 9 15 1016.8 - - - - - - - - -
30/09:00am 18.0 W 13 21 1016.7 - - - - - - - - -
30/08:30am 17.8 W 11 14 1016.8 - - - - - - - - -
30/08:00am 17.7 WSW 11 19 1016.5 - - - - - - - - -
30/07:30am 16.9 SW 8 16 1016.3 - - - - - - - - -
30/07:00am 17.6 W 13 27 1015.3 - - - - - - - - -
30/06:30am 17.2 W 12 23 1014.8 - - - - - - - - -
30/06:00am 16.9 W 14 24 1014.4 - - - - - - - - -
30/05:43am 16.9 W 15 26 1014.4 - - - - - - - - -
30/05:30am 17.0 W 18 27 1014.3 - - - - - - - - -
30/05:00am 17.3 W 21 28 1014.2 - - - - - - - - -
30/04:30am 17.4 W 22 28 1013.3 - - - - - - - - -
30/04:00am 17.6 W 24 28 1013.0 - - - - - - - - -
30/03:30am 17.9 W 22 28 1012.8 - - - - - - - - -
30/03:00am 18.2 W 23 28 1013.3 - - - - - - - - -
30/02:30am 18.3 W 18 26 1013.7 - - - - - - - - -
30/02:00am 18.7 W 16 23 1013.6 - - - - - - - - -
30/01:30am 18.6 WNW 11 17 1014.0 - - - - - - - - -
30/01:00am 16.1 NW 2 4 1014.2 - - - - - - - - -
30/12:30am 16.0 NE 5 8 1014.5 - - - - - - - - -
30/12:00am 16.2 NE 4 7 1014.4 - - - - - - - - -
 
Date/Time
EST
Temp

°C
Wind Pressure Rain
since 9am
mm
Weather Cloud Vis
km
Sea
Height
m
Swell
Dir
 
Speed
knots
Gust
knots
hPa Trend Height
m
Period
s
Dir
29/11:30pm 16.4 NE 4 6 1014.5 - - - - - - - - -
29/11:00pm 16.9 NNW 2 5 1014.4 - - - - - - - - -
29/10:30pm 16.8 N 6 12 1014.4 - - - - - - - - -
29/10:00pm 17.2 N 6 9 1014.1 - - - - - - - - -
29/09:30pm 17.5 N 6 10 1014.0 - - - - - - - - -
29/09:00pm 18.1 N 8 11 1013.9 - - - - - - - - -
29/08:30pm 19.0 N 6 9 1014.1 - - - - - - - - -
29/08:00pm 19.2 N 6 10 1014.2 - - - - - - - - -
29/07:30pm 19.9 NNW 9 14 1014.2 - - - - - - - - -
29/07:00pm 19.6 NNW 8 14 1014.2 - - - - - - - - -
29/06:30pm 20.5 NNW 8 12 1014.1 - - - - - - - - -
29/06:00pm 20.6 WNW 8 12 1013.9 - - - - - - - - -
29/05:30pm 21.5 WNW 13 20 1013.6 - - - - - - - - -
29/05:00pm 21.5 WNW 10 16 1012.9 - - - - - - - - -
29/04:30pm 21.9 NNW 4 6 1012.7 - - - - - - - - -
29/04:00pm 22.1 W 13 18 1012.6 - - - - - - - - -
29/03:35pm 22.4 WNW 16 26 1012.4 - - - - - - - - -
29/03:30pm 22.4 WNW 15 22 1012.4 - - - - - - - - -
29/03:00pm 22.5 WNW 10 15 1012.3 - - - - - - - - -
29/02:30pm 22.3 W 19 27 1011.4 - - - - - - - - -
29/02:00pm 22.4 W 16 26 1012.1 - - - - - - - - -
29/01:30pm 17.9 NE 7 11 1012.5 - - - - - - - - -
29/01:00pm 18.0 NNE 8 13 1012.8 - - - - - - - - -
29/12:30pm 17.7 NNE 10 14 1013.9 - - - - - - - - -
29/12:00pm 17.1 NNE 11 16 1013.9 - - - - - - - - -
29/11:30am 16.9 NNE 12 17 1014.6 - - - - - - - - -
29/11:00am 17.0 N 12 15 1015.0 - - - - - - - - -
29/10:30am 16.9 N 9 13 1015.7 - - - - - - - - -
29/10:00am 16.9 NNW 6 9 1016.1 - - - - - - - - -
29/09:30am 15.8 NNW 5 8 1016.3 - - - - - - - - -
29/09:00am 15.7 NW 7 11 1016.5 - - - - - - - - -
29/08:30am 15.8 NNW 8 12 1016.6 - - - - - - - - -
29/08:00am 16.1 NNW 9 13 1016.6 - - - - - - - - -
29/07:30am 17.5 NW 16 23 1016.3 - - - - - - - - -
29/07:00am 17.8 WNW 16 22 1015.9 - - - - - - - - -
29/06:30am 18.0 WNW 12 18 1015.7 - - - - - - - - -
29/06:00am 16.2 WSW 1 4 1015.7 - - - - - - - - -
29/05:30am 15.9 NW 5 9 1015.8 - - - - - - - - -
29/05:00am 15.7 NW 7 10 1015.8 - - - - - - - - -
29/04:30am 15.4 NNW 5 9 1015.9 - - - - - - - - -
29/04:00am 15.7 NW 7 10 1015.9 - - - - - - - - -
29/03:30am 16.0 W 11 15 1015.9 - - - - - - - - -
29/03:00am 16.0 NNW 6 9 1015.6 - - - - - - - - -
29/02:30am 16.0 NW 5 8 1016.0 - - - - - - - - -
29/02:00am 16.4 NNW 5 13 1016.2 - - - - - - - - -
29/01:30am 16.0 NW 6 10 1016.2 - - - - - - - - -
29/01:00am 16.5 WNW 6 11 1016.3 - - - - - - - - -
29/12:30am 16.9 WNW 6 11 1016.5 - - - - - - - - -
29/12:00am 16.7 NW 2 7 1017.0 - - - - - - - - -

Other Formats:

Comma delimited format used in spreadsheet applications
http://www.bom.gov.au/fwo/IDN60701/IDN60701.95745.axf

JavaScript Object Notation format (JSON) in row-major order
http://www.bom.gov.au/fwo/IDN60701/IDN60701.95745.json